This is the latest recevied weather packets stored in our database for station/object EMGATE. If no packets are shown the sender has not sent any weather packets the latest 10 day(s).
| Time | Temp. | Humidity | Pressure | Rain* | Wind** | Luminosity | Snow |
|---|---|---|---|---|---|---|---|
| 1777380842 | 14.44° C | 53% | 1019.3 hPa | 0 mm | - | - | - |
| 1777379943 | 14.44° C | 54% | 1019.4 hPa | 0 mm | - | - | - |
| 1777379043 | 13.89° C | 55% | 1019.5 hPa | 0 mm | - | - | - |
| 1777378142 | 12.78° C | 57% | 1019.5 hPa | 0 mm | - | - | - |
| 1777377243 | 12.22° C | 59% | 1019.6 hPa | 0 mm | - | - | - |
| 1777376343 | 11.11° C | 61% | 1019.7 hPa | 0 mm | - | - | - |
| 1777375591 | 10° C | 65% | 1019.9 hPa | 0 mm | - | - | - |
| 1777375443 | 10° C | 65% | 1019.9 hPa | 0 mm | - | - | - |
| 1777374543 | 8.33° C | 68% | 1019.8 hPa | 0 mm | - | - | - |
| 1777373642 | 7.22° C | 71% | 1020 hPa | 0 mm | - | - | - |
| 1777372743 | 6.11° C | 72% | 1019.9 hPa | 0 mm | - | - | - |
| 1777371843 | 6.11° C | 72% | 1019.8 hPa | 0 mm | - | - | - |
| 1777370943 | 6.11° C | 72% | 1019.8 hPa | 0 mm | - | - | - |
| 1777370042 | 6.11° C | 72% | 1019.6 hPa | 0 mm | - | - | - |
| 1777369143 | 6.11° C | 71% | 1019.5 hPa | 0 mm | - | - | - |
| 1777368243 | 6.11° C | 71% | 1019.3 hPa | 0 mm | - | - | - |
| 1777367343 | 6.67° C | 71% | 1019.1 hPa | 0 mm | - | - | - |
| 1777366443 | 6.67° C | 70% | 1019.1 hPa | 0 mm | - | - | - |
| 1777365543 | 6.67° C | 69% | 1019.3 hPa | 0 mm | - | - | - |
| 1777364643 | 7.22° C | 69% | 1019.5 hPa | 0 mm | - | - | - |
| 1777363743 | 7.22° C | 68% | 1019.6 hPa | 0 mm | - | - | - |
| 1777362843 | 7.78° C | 67% | 1019.7 hPa | 0 mm | - | - | - |
| 1777361943 | 7.78° C | 66% | 1019.7 hPa | 0 mm | - | - | - |
| 1777361074 | 7.78° C | 66% | 1019.7 hPa | 0 mm | - | - | - |
| 1777361043 | 7.78° C | 66% | 1019.7 hPa | 0 mm | - | - | - |
* Rain latest hour (hover to see other rain measurements)
** Current wind speed in m/s (hover to see current wind gust speed)